Time;durP1;ratioP1;P1;durP2;ratioP2;P2;SDS_P1;SDS_P2;PMS_P1;PMS_P2;Temp;Humidity;BMP_temperature;BMP_pressure;BME280_temperature;BME280_humidity;BME280_pressure;Samples;Min_cycle;Max_cycle;Signal;HPM_P1;HPM_P2
2022/03/24 00:00:39;;;;;;;241.05;98.40;;;2.60;99.90;;;;;;5057593;28;20075;-52
2022/03/24 00:03:07;;;;;;;218.00;98.60;;;2.40;99.90;;;;;;5057404;28;20036;-52
2022/03/24 00:05:33;;;;;;;218.32;95.00;;;2.30;99.90;;;;;;5057634;28;20025;-52
2022/03/24 00:07:59;;;;;;;228.98;102.10;;;2.20;99.90;;;;;;5057257;28;20434;-52
2022/03/24 00:10:26;;;;;;;251.48;109.00;;;2.20;99.90;;;;;;5057351;28;20116;-52
2022/03/24 00:12:52;;;;;;;258.33;109.95;;;2.40;99.90;;;;;;5057567;28;20029;-52
2022/03/24 00:15:19;;;;;;;263.00;108.45;;;2.40;99.90;;;;;;5055875;28;20043;-52
2022/03/24 00:17:45;;;;;;;246.45;102.85;;;2.30;99.90;;;;;;5057352;28;20029;-52
2022/03/24 00:20:14;;;;;;;225.95;100.97;;;2.30;99.90;;;;;;5057388;28;20104;-52
2022/03/24 00:22:41;;;;;;;241.75;97.32;;;2.20;99.90;;;;;;5057023;28;20032;-52
2022/03/24 00:25:07;;;;;;;210.10;92.30;;;2.20;99.90;;;;;;5057268;28;20048;-52
2022/03/24 00:27:33;;;;;;;259.52;110.78;;;1.90;99.90;;;;;;5057690;28;20056;-52
2022/03/24 00:29:59;;;;;;;238.02;101.10;;;1.80;99.90;;;;;;5056948;28;20033;-51
2022/03/24 00:32:25;;;;;;;218.30;91.35;;;1.80;99.90;;;;;;5057020;28;20040;-52
2022/03/24 00:34:52;;;;;;;214.88;89.55;;;1.80;99.90;;;;;;5056946;28;20025;-52
2022/03/24 00:37:18;;;;;;;209.00;90.57;;;1.70;99.90;;;;;;5056721;28;20494;-52
2022/03/24 00:39:44;;;;;;;222.68;96.30;;;1.80;99.90;;;;;;5056938;28;20477;-52
2022/03/24 00:42:11;;;;;;;247.52;103.97;;;1.80;99.90;;;;;;5056994;28;20025;-52
2022/03/24 00:44:42;;;;;;;247.55;105.93;;;1.90;99.90;;;;;;5056661;28;20025;-52
2022/03/24 00:47:13;;;;;;;241.73;101.32;;;1.80;99.90;;;;;;5056818;28;20075;-52
2022/03/24 00:49:41;;;;;;;222.02;97.50;;;1.90;99.90;;;;;;5056663;28;20032;-52
2022/03/24 00:52:11;;;;;;;209.07;93.90;;;1.70;99.90;;;;;;5056559;28;20032;-52
2022/03/24 00:54:38;;;;;;;215.68;93.80;;;1.70;99.90;;;;;;5056484;28;20031;-52
2022/03/24 00:57:07;;;;;;;228.13;97.15;;;1.60;99.90;;;;;;5056318;28;20421;-52
2022/03/24 00:59:40;;;;;;;252.52;101.55;;;1.60;99.90;;;;;;5056616;28;20048;-52
2022/03/24 01:02:09;;;;;;;234.30;100.70;;;1.60;99.90;;;;;;5056281;28;20100;-52
2022/03/24 01:04:38;;;;;;;237.77;103.07;;;1.50;99.90;;;;;;5055193;28;20029;-52
2022/03/24 01:07:11;;;;;;;235.18;100.35;;;1.50;99.90;;;;;;5054707;28;20036;-52
2022/03/24 01:09:38;;;;;;;224.45;97.32;;;1.40;99.90;;;;;;5054868;28;20425;-52
2022/03/24 01:12:05;;;;;;;222.57;95.20;;;1.40;99.90;;;;;;5054821;28;20029;-52
2022/03/24 01:14:35;;;;;;;223.32;95.18;;;1.40;99.90;;;;;;5054904;28;20025;-52
2022/03/24 01:17:04;;;;;;;217.27;93.85;;;1.30;99.90;;;;;;5054908;28;20486;-52
2022/03/24 01:19:32;;;;;;;221.57;93.68;;;1.20;99.90;;;;;;5056502;28;20037;-52
2022/03/24 01:22:00;;;;;;;215.80;91.97;;;1.20;99.90;;;;;;5055854;28;20033;-52
2022/03/24 01:24:28;;;;;;;196.93;85.82;;;1.20;99.90;;;;;;5056144;28;20037;-52
2022/03/24 01:27:00;;;;;;;197.20;83.32;;;1.10;99.90;;;;;;5055912;28;20043;-52
2022/03/24 01:29:27;;;;;;;179.85;78.38;;;1.10;99.90;;;;;;5054637;28;20478;-52
2022/03/24 01:31:53;;;;;;;186.98;80.95;;;1.00;99.90;;;;;;5055927;28;20063;-52
2022/03/24 01:34:20;;;;;;;186.82;82.22;;;0.90;99.90;;;;;;5054420;28;20021;-52
2022/03/24 01:36:46;;;;;;;202.40;85.18;;;0.90;99.90;;;;;;5054455;28;20037;-51
2022/03/24 01:39:12;;;;;;;215.20;96.70;;;0.90;99.90;;;;;;5054588;28;20032;-52
2022/03/24 01:41:40;;;;;;;216.70;93.45;;;0.90;99.90;;;;;;5054449;28;20399;-51
2022/03/24 01:44:17;;;;;;;209.25;86.65;;;0.80;99.90;;;;;;5054655;28;20029;-52
2022/03/24 01:47:05;;;;;;;193.50;84.65;;;0.80;99.90;;;;;;5054240;28;20518;-52
2022/03/24 01:49:35;;;;;;;222.30;88.53;;;0.70;99.90;;;;;;5054157;28;20098;-52
2022/03/24 01:52:07;;;;;;;;;;;0.70;99.90;;;;;;5056500;28;20059;-52
2022/03/24 01:54:35;;;;;;;248.00;95.38;;;0.80;99.90;;;;;;5055293;28;19908;-52
2022/03/24 01:57:03;;;;;;;269.75;96.82;;;0.90;99.90;;;;;;5055313;28;20036;-52
2022/03/24 01:59:29;;;;;;;232.10;95.28;;;0.80;99.90;;;;;;5054076;28;20029;-52
2022/03/24 02:01:57;;;;;;;211.75;86.38;;;0.80;99.90;;;;;;5055105;28;20296;-52
2022/03/24 02:04:24;;;;;;;192.40;81.85;;;0.90;99.90;;;;;;5054210;28;20033;-52
2022/03/24 02:06:51;;;;;;;184.02;80.70;;;1.00;99.90;;;;;;5054089;28;20117;-51
2022/03/24 02:09:18;;;;;;;171.23;74.82;;;1.00;99.90;;;;;;5053658;28;20033;-52
2022/03/24 02:11:45;;;;;;;168.13;75.13;;;1.10;99.90;;;;;;5053871;28;20033;-51
2022/03/24 02:14:11;;;;;;;168.48;73.18;;;1.00;99.90;;;;;;5054961;28;20075;-52
2022/03/24 02:16:41;;;;;;;167.60;72.05;;;1.00;99.90;;;;;;5053653;28;20391;-51
2022/03/24 02:19:17;;;;;;;181.70;73.80;;;0.90;99.90;;;;;;5053372;28;20025;-52
2022/03/24 02:21:45;;;;;;;181.13;76.80;;;0.80;99.90;;;;;;5053672;28;20509;-51
2022/03/24 02:24:13;;;;;;;184.40;78.18;;;0.70;99.90;;;;;;5055031;28;20075;-52
2022/03/24 02:26:40;;;;;;;199.95;77.25;;;0.60;99.90;;;;;;5054792;28;20037;-52
2022/03/24 02:29:07;;;;;;;179.80;74.47;;;0.60;99.90;;;;;;5054949;28;20033;-51
2022/03/24 02:31:38;;;;;;;176.73;72.55;;;0.50;99.90;;;;;;5054647;28;20032;-52
2022/03/24 02:36:54;;;;;;;161.43;67.82;;;0.50;99.90;;;;;;5054442;28;20029;-51
2022/03/24 02:39:20;;;;;;;158.27;68.18;;;0.50;99.90;;;;;;5054710;28;20021;-51
2022/03/24 02:41:49;;;;;;;159.73;65.63;;;0.50;99.90;;;;;;5054728;28;20215;-51
2022/03/24 02:44:17;;;;;;;183.40;71.93;;;0.60;99.90;;;;;;5054563;28;20024;-52
2022/03/24 02:46:47;;;;;;;182.07;73.85;;;0.50;99.90;;;;;;5054550;28;20037;-52
2022/03/24 02:49:17;;;;;;;163.13;68.22;;;0.40;99.90;;;;;;5054628;28;20039;-52
2022/03/24 02:51:52;;;;;;;172.50;73.88;;;0.40;99.90;;;;;;5054426;28;20056;-51
2022/03/24 02:54:19;;;;;;;160.25;67.03;;;0.40;99.90;;;;;;5054389;28;20478;-51
2022/03/24 02:56:46;;;;;;;141.43;62.72;;;0.40;99.90;;;;;;5054145;28;20372;-52
2022/03/24 02:59:13;;;;;;;150.10;63.83;;;0.30;99.90;;;;;;5054288;28;20033;-51
2022/03/24 03:01:43;;;;;;;145.90;61.13;;;0.30;99.90;;;;;;5054276;28;20025;-52
2022/03/24 03:04:10;;;;;;;143.65;62.28;;;0.20;99.90;;;;;;5054408;28;20017;-52
2022/03/24 03:06:37;;;;;;;151.43;63.75;;;0.20;99.90;;;;;;5054380;28;20449;-52
2022/03/24 03:09:05;;;;;;;144.00;60.20;;;0.20;99.90;;;;;;5054177;28;20108;-52
2022/03/24 03:11:32;;;;;;;136.23;58.83;;;0.10;99.90;;;;;;5054236;28;20025;-52
2022/03/24 03:14:01;;;;;;;127.20;55.92;;;0.10;99.90;;;;;;5053995;28;20462;-51
2022/03/24 03:16:28;;;;;;;147.32;61.67;;;0.10;99.90;;;;;;5054257;28;20033;-52
2022/03/24 03:18:56;;;;;;;133.77;59.28;;;0.00;99.90;;;;;;5054271;28;20043;-51
2022/03/24 03:21:26;;;;;;;131.25;59.30;;;-0.10;99.90;;;;;;5053953;28;20051;-51
2022/03/24 03:23:52;;;;;;;142.82;64.70;;;-0.10;99.90;;;;;;5054292;28;20394;-52
2022/03/24 03:26:19;;;;;;;186.30;73.53;;;0.00;99.90;;;;;;5053919;28;20033;-52
2022/03/24 03:28:45;;;;;;;186.50;71.35;;;0.00;99.90;;;;;;5054693;28;20064;-52
2022/03/24 03:31:11;;;;;;;161.88;63.97;;;0.00;99.90;;;;;;5058184;28;20025;-51
2022/03/24 03:33:37;;;;;;;142.75;62.08;;;0.10;99.90;;;;;;5058103;28;20025;-51
2022/03/24 03:36:06;;;;;;;138.00;61.17;;;0.00;99.90;;;;;;5057948;28;20463;-51
2022/03/24 03:38:33;;;;;;;136.75;60.42;;;0.10;99.90;;;;;;5058185;28;20024;-52
2022/03/24 03:41:02;;;;;;;135.70;58.83;;;0.10;99.90;;;;;;5057978;28;20024;-51
2022/03/24 03:43:32;;;;;;;149.32;61.45;;;0.10;99.90;;;;;;5057901;28;20025;-52
2022/03/24 03:45:59;;;;;;;139.68;59.53;;;0.00;99.90;;;;;;5058016;28;20025;-52
2022/03/24 03:48:26;;;;;;;123.15;56.60;;;0.10;99.90;;;;;;5057807;28;20071;-52
2022/03/24 03:50:52;;;;;;;143.30;59.03;;;0.10;99.90;;;;;;5057899;28;20013;-52
2022/03/24 03:53:18;;;;;;;131.57;56.60;;;0.00;99.90;;;;;;5057807;28;20025;-52
2022/03/24 03:55:44;;;;;;;128.63;53.78;;;0.00;99.90;;;;;;5057386;28;20380;-52
2022/03/24 03:58:11;;;;;;;132.07;57.08;;;0.00;99.90;;;;;;5057508;28;20029;-52
2022/03/24 04:00:52;;;;;;;128.77;55.78;;;-0.10;99.90;;;;;;5057838;28;20027;-51
2022/03/24 04:03:20;;;;;;;123.82;55.40;;;0.00;99.90;;;;;;5057469;28;20382;-51
2022/03/24 04:05:46;;;;;;;126.00;54.92;;;-0.10;99.90;;;;;;5056666;28;20502;-51
2022/03/24 04:08:12;;;;;;;118.75;55.05;;;-0.10;99.90;;;;;;5057575;28;20024;-51
2022/03/24 04:10:44;;;;;;;130.70;57.55;;;-0.20;99.90;;;;;;5057251;28;20360;-52
2022/03/24 04:13:11;;;;;;;124.18;57.53;;;-0.20;99.90;;;;;;5057351;28;20033;-52
2022/03/24 04:15:38;;;;;;;128.48;56.58;;;-0.20;99.90;;;;;;5057620;28;20044;-52
2022/03/24 04:18:07;;;;;;;121.97;53.60;;;-0.10;99.90;;;;;;5057121;28;20041;-52
2022/03/24 04:20:34;;;;;;;122.63;54.72;;;-0.20;99.90;;;;;;5057377;28;20118;-51
2022/03/24 04:23:03;;;;;;;114.97;54.65;;;-0.20;99.90;;;;;;5057413;28;20024;-51
2022/03/24 04:25:29;;;;;;;115.45;52.92;;;-0.30;99.90;;;;;;5056932;28;20052;-51
2022/03/24 04:27:57;;;;;;;111.10;53.10;;;-0.30;99.90;;;;;;5057344;28;20078;-51
2022/03/24 04:30:26;;;;;;;104.50;48.70;;;-0.30;99.90;;;;;;5057075;28;20121;-51
2022/03/24 04:32:53;;;;;;;142.07;57.55;;;-0.40;99.90;;;;;;5056888;28;20461;-51
2022/03/24 04:35:20;;;;;;;124.25;53.83;;;-0.50;99.90;;;;;;5057043;28;20110;-51
2022/03/24 04:37:46;;;;;;;118.10;52.97;;;-0.40;99.90;;;;;;5057046;28;20033;-52
2022/03/24 04:40:15;;;;;;;127.07;52.97;;;-0.20;99.90;;;;;;5056154;28;20037;-52
2022/03/24 04:42:42;;;;;;;164.68;66.05;;;-0.20;99.90;;;;;;5056829;28;20029;-52
2022/03/24 04:45:09;;;;;;;163.25;63.25;;;-0.10;99.90;;;;;;5056644;28;20100;-51
2022/03/24 04:47:37;;;;;;;137.00;56.38;;;-0.10;99.90;;;;;;5056910;28;20033;-52
2022/03/24 04:50:05;;;;;;;143.93;60.33;;;-0.10;99.90;;;;;;5056671;28;20025;-51
2022/03/24 04:52:32;;;;;;;135.23;57.58;;;0.00;99.90;;;;;;5056576;28;20028;-51
2022/03/24 04:55:01;;;;;;;122.78;53.58;;;0.00;99.90;;;;;;5056335;28;20078;-52
2022/03/24 04:57:29;;;;;;;147.55;61.47;;;-0.10;99.90;;;;;;5056454;28;20033;-52
2022/03/24 04:59:56;;;;;;;128.80;58.53;;;0.00;99.90;;;;;;5056490;28;20023;-51
2022/03/24 05:02:24;;;;;;;149.40;58.85;;;0.00;99.90;;;;;;5056377;28;20348;-51
2022/03/24 05:04:52;;;;;;;151.73;57.28;;;0.20;99.90;;;;;;5056460;28;20382;-51
2022/03/24 05:07:18;;;;;;;135.52;55.33;;;0.30;99.90;;;;;;5056288;28;20032;-51
2022/03/24 05:09:45;;;;;;;131.75;54.85;;;0.40;99.90;;;;;;5056437;28;20035;-51
2022/03/24 05:12:12;;;;;;;138.18;58.08;;;0.60;99.90;;;;;;5056499;28;20025;-52
2022/03/24 05:14:38;;;;;;;158.25;60.08;;;0.80;99.90;;;;;;5056051;28;20025;-51
2022/03/24 05:17:06;;;;;;;154.55;61.38;;;1.00;99.90;;;;;;5056217;28;20094;-51
2022/03/24 05:19:32;;;;;;;181.65;69.07;;;1.20;99.90;;;;;;5056059;28;20084;-52
2022/03/24 05:21:58;;;;;;;177.68;67.18;;;1.30;99.90;;;;;;5056136;28;20051;-52
2022/03/24 05:24:24;;;;;;;148.90;64.55;;;1.30;99.90;;;;;;5056236;28;20470;-52
2022/03/24 05:26:51;;;;;;;147.80;59.10;;;1.40;99.90;;;;;;5055998;28;20032;-52
2022/03/24 05:29:17;;;;;;;154.80;61.50;;;1.40;99.90;;;;;;5055854;28;20047;-52
2022/03/24 05:31:44;;;;;;;137.98;57.35;;;1.60;99.90;;;;;;5056036;28;20039;-52
2022/03/24 05:34:10;;;;;;;135.85;60.55;;;1.60;99.90;;;;;;5056025;28;20112;-52
2022/03/24 05:36:37;;;;;;;147.98;61.60;;;1.80;99.90;;;;;;5055614;28;20037;-52
2022/03/24 05:39:03;;;;;;;135.07;58.70;;;1.90;99.90;;;;;;5055742;28;20075;-52
2022/03/24 05:41:32;;;;;;;180.23;74.45;;;2.20;99.90;;;;;;5055678;28;20463;-52
2022/03/24 05:44:04;;;;;;;159.98;68.35;;;2.30;99.90;;;;;;5055619;28;20029;-52
2022/03/24 05:46:36;;;;;;;159.30;72.07;;;2.50;99.90;;;;;;5055538;28;20382;-52
2022/03/24 05:49:08;;;;;;;177.52;72.90;;;2.60;99.90;;;;;;5055378;28;20024;-52
2022/03/24 05:51:53;;;;;;;190.25;78.03;;;2.80;99.90;;;;;;5055725;28;20087;-52
2022/03/24 05:54:23;;;;;;;199.25;79.65;;;3.10;99.90;;;;;;5055470;28;20037;-52
2022/03/24 05:56:50;;;;;;;191.07;75.53;;;3.30;99.90;;;;;;5054796;28;20040;-52
2022/03/24 05:59:16;;;;;;;171.05;69.85;;;3.50;99.90;;;;;;5055399;28;20493;-52
2022/03/24 06:01:44;;;;;;;177.73;70.43;;;3.80;99.90;;;;;;5055415;28;20032;-52
2022/03/24 06:04:13;;;;;;;162.40;68.85;;;3.90;99.90;;;;;;5055310;28;20022;-52
2022/03/24 06:06:41;;;;;;;159.13;66.25;;;4.10;99.90;;;;;;5055460;28;20062;-52
2022/03/24 06:09:07;;;;;;;141.80;62.90;;;4.30;99.90;;;;;;5055044;28;20024;-52
2022/03/24 06:11:35;;;;;;;146.52;64.55;;;4.40;99.90;;;;;;5054771;28;20526;-52
2022/03/24 06:14:03;;;;;;;168.60;68.90;;;4.60;99.90;;;;;;5055284;28;20035;-52
2022/03/24 06:16:29;;;;;;;177.25;80.22;;;4.80;99.90;;;;;;5052067;28;20021;-52
2022/03/24 06:18:56;;;;;;;180.07;78.65;;;5.00;99.90;;;;;;5040707;28;20017;-52
2022/03/24 06:21:23;;;;;;;176.20;79.55;;;5.10;99.90;;;;;;5051135;28;20732;-53
2022/03/24 06:23:50;;;;;;;170.75;77.30;;;5.30;99.90;;;;;;5046383;28;20136;-53
2022/03/24 06:26:19;;;;;;;165.95;80.40;;;5.60;99.90;;;;;;5045411;28;20028;-53
2022/03/24 06:28:45;;;;;;;198.55;83.22;;;5.90;99.90;;;;;;5047064;28;20025;-53
2022/03/24 06:31:12;;;;;;;181.13;82.95;;;6.20;99.90;;;;;;5048233;28;20490;-53
2022/03/24 06:33:39;;;;;;;179.30;79.93;;;6.40;99.60;;;;;;5048712;28;20100;-53
2022/03/24 06:36:05;;;;;;;170.82;75.03;;;6.50;99.60;;;;;;5054350;28;20033;-53
2022/03/24 06:38:35;;;;;;;163.90;75.43;;;6.70;99.90;;;;;;5046830;28;20084;-53
2022/03/24 06:41:02;;;;;;;168.03;78.70;;;7.00;98.70;;;;;;5042575;28;20108;-53
2022/03/24 06:43:28;;;;;;;156.15;74.80;;;7.30;98.10;;;;;;5054194;28;20060;-53
2022/03/24 06:45:54;;;;;;;159.65;74.70;;;7.40;97.30;;;;;;5046586;28;20071;-53
2022/03/24 06:48:20;;;;;;;167.73;74.97;;;7.50;97.60;;;;;;5054163;28;20025;-53
2022/03/24 06:50:49;;;;;;;150.90;68.35;;;8.00;97.20;;;;;;5054650;28;20494;-53
2022/03/24 06:53:16;;;;;;;149.35;71.28;;;8.30;95.70;;;;;;5048303;28;20020;-53
2022/03/24 06:55:43;;;;;;;152.70;70.20;;;8.60;96.00;;;;;;5040156;28;20049;-53
2022/03/24 06:58:10;;;;;;;178.15;73.45;;;8.90;95.10;;;;;;5037362;28;20029;-53
2022/03/24 07:00:36;;;;;;;151.88;69.63;;;9.20;93.60;;;;;;5039343;28;20029;-53
2022/03/24 07:03:02;;;;;;;138.73;65.95;;;9.10;93.60;;;;;;5045423;28;20478;-53
2022/03/24 07:05:29;;;;;;;136.73;62.55;;;9.60;93.10;;;;;;5037075;28;20024;-53
2022/03/24 07:07:56;;;;;;;128.13;61.55;;;9.60;90.20;;;;;;5034781;28;20095;-53
2022/03/24 07:10:22;;;;;;;134.80;61.90;;;9.80;90.60;;;;;;5042419;28;20033;-53
2022/03/24 07:12:49;;;;;;;136.82;66.30;;;10.10;90.30;;;;;;5042702;28;20039;-53
2022/03/24 07:15:16;;;;;;;143.63;64.30;;;10.50;87.00;;;;;;5049295;28;20033;-53
2022/03/24 07:17:42;;;;;;;139.50;64.35;;;10.50;88.70;;;;;;5038367;28;20034;-53
2022/03/24 07:20:09;;;;;;;123.95;61.92;;;10.20;86.60;;;;;;5048084;28;20384;-53
2022/03/24 07:22:39;;;;;;;136.10;64.45;;;10.80;87.20;;;;;;5049062;28;20025;-53
2022/03/24 07:25:07;;;;;;;169.80;70.55;;;11.20;81.10;;;;;;5038063;28;20083;-53
2022/03/24 07:27:39;;;;;;;136.23;64.72;;;11.50;82.50;;;;;;5048744;28;20040;-53
2022/03/24 07:30:06;;;;;;;133.82;65.70;;;11.90;78.90;;;;;;5049057;28;20041;-53
2022/03/24 07:32:33;;;;;;;125.70;59.90;;;12.10;78.80;;;;;;5046360;28;20082;-53
2022/03/24 07:34:59;;;;;;;137.57;58.30;;;12.00;76.90;;;;;;5054495;28;20029;-53
2022/03/24 07:37:27;;;;;;;123.82;56.13;;;11.90;74.40;;;;;;5052139;28;20489;-53
2022/03/24 07:39:53;;;;;;;132.98;56.30;;;11.90;70.60;;;;;;5053834;28;20021;-53
2022/03/24 07:42:19;;;;;;;96.78;46.92;;;12.50;68.20;;;;;;5045133;28;20036;-53
2022/03/24 07:44:45;;;;;;;86.95;42.05;;;12.60;63.60;;;;;;5053460;28;20055;-53
2022/03/24 07:47:11;;;;;;;79.50;38.67;;;12.80;59.30;;;;;;5047557;28;20487;-53
2022/03/24 07:49:40;;;;;;;86.13;40.25;;;13.10;57.20;;;;;;5052507;28;20025;-53
2022/03/24 07:52:12;;;;;;;82.53;40.58;;;13.10;58.00;;;;;;5053376;28;20033;-53
2022/03/24 07:54:59;;;;;;;88.32;39.22;;;13.20;55.30;;;;;;5043930;28;20025;-54
2022/03/24 07:57:27;;;;;;;83.07;38.03;;;13.60;55.00;;;;;;5044728;28;20033;-53
2022/03/24 07:59:53;;;;;;;80.82;37.75;;;13.90;52.70;;;;;;5053905;28;20029;-53
2022/03/24 08:02:19;;;;;;;84.80;40.83;;;14.30;56.10;;;;;;5053836;28;20029;-53
2022/03/24 08:04:53;;;;;;;91.20;39.50;;;14.60;50.00;;;;;;5052977;28;20542;-53
2022/03/24 08:07:21;;;;;;;84.03;43.67;;;15.00;48.70;;;;;;5053501;28;20471;-53
2022/03/24 08:09:48;;;;;;;83.32;42.33;;;15.00;45.60;;;;;;5053467;28;20120;-54
2022/03/24 08:12:14;;;;;;;88.75;45.42;;;15.20;46.30;;;;;;5052613;28;20449;-53
2022/03/24 08:14:40;;;;;;;102.90;46.70;;;15.10;48.10;;;;;;5052886;28;20056;-53
2022/03/24 08:17:08;;;;;;;95.68;46.08;;;15.70;46.40;;;;;;5056181;28;20029;-53
2022/03/24 08:19:34;;;;;;;102.97;51.03;;;16.00;47.20;;;;;;5055617;28;20032;-54
2022/03/24 08:22:00;;;;;;;106.88;54.83;;;16.60;46.30;;;;;;5057218;28;20033;-53
2022/03/24 08:24:30;;;;;;;105.13;53.40;;;16.50;44.10;;;;;;5057648;28;20033;-53
2022/03/24 08:26:56;;;;;;;99.43;52.35;;;16.60;45.00;;;;;;5055072;28;20033;-53
2022/03/24 08:29:22;;;;;;;102.80;52.08;;;16.70;44.20;;;;;;5054615;28;20075;-53
2022/03/24 08:31:48;;;;;;;96.60;49.15;;;17.00;44.60;;;;;;5056910;28;20017;-53
2022/03/24 08:34:14;;;;;;;97.95;48.38;;;17.50;45.50;;;;;;5054745;28;20090;-53
2022/03/24 08:36:43;;;;;;;95.97;48.45;;;18.30;41.30;;;;;;5056001;28;20470;-53
2022/03/24 08:39:10;;;;;;;75.93;39.63;;;18.10;39.30;;;;;;5056898;28;20021;-54
2022/03/24 08:41:36;;;;;;;91.75;40.47;;;18.90;38.70;;;;;;5053948;28;20752;-54
2022/03/24 08:44:03;;;;;;;72.65;36.35;;;18.40;34.80;;;;;;5055312;28;20087;-54
2022/03/24 08:46:29;;;;;;;63.65;36.13;;;18.50;38.00;;;;;;5055898;28;20031;-54
2022/03/24 08:48:56;;;;;;;77.05;39.67;;;19.10;35.30;;;;;;5055962;28;20033;-54
2022/03/24 08:51:23;;;;;;;61.30;34.03;;;19.50;33.80;;;;;;5056511;28;20511;-54
2022/03/24 08:53:49;;;;;;;71.75;33.70;;;19.80;32.30;;;;;;5056600;28;20478;-54
2022/03/24 08:56:15;;;;;;;67.00;29.50;;;20.20;33.00;;;;;;5044593;28;20138;-54
2022/03/24 08:58:42;;;;;;;89.65;35.78;;;19.70;30.70;;;;;;5042255;28;20037;-54
2022/03/24 09:01:08;;;;;;;51.50;26.08;;;20.20;32.80;;;;;;5056784;28;20094;-54
2022/03/24 09:03:37;;;;;;;50.60;26.48;;;20.40;29.50;;;;;;5056509;28;20029;-54
2022/03/24 09:06:03;;;;;;;50.60;25.90;;;20.60;28.80;;;;;;5056226;28;20150;-54
2022/03/24 09:08:33;;;;;;;44.53;23.10;;;21.20;29.00;;;;;;5055934;28;20057;-54
2022/03/24 09:11:05;;;;;;;71.88;29.65;;;21.30;27.30;;;;;;5053388;28;20641;-54
2022/03/24 09:13:32;;;;;;;48.40;23.48;;;21.60;27.20;;;;;;5054757;28;20032;-54
2022/03/24 09:15:58;;;;;;;45.45;21.98;;;21.10;26.00;;;;;;5056087;28;20427;-54
2022/03/24 09:18:24;;;;;;;37.20;19.80;;;21.10;26.30;;;;;;5056319;28;20111;-53
2022/03/24 09:20:50;;;;;;;33.75;20.27;;;20.20;25.20;;;;;;5056683;28;20439;-54
2022/03/24 09:23:16;;;;;;;38.85;19.85;;;21.40;25.80;;;;;;5056517;28;20053;-54
2022/03/24 09:25:43;;;;;;;34.25;18.15;;;22.10;24.90;;;;;;5056663;28;20056;-54
2022/03/24 09:28:10;;;;;;;40.80;19.73;;;21.90;24.10;;;;;;5055940;28;20025;-53
2022/03/24 09:30:37;;;;;;;40.92;19.35;;;21.50;24.80;;;;;;5054041;28;20179;-54
2022/03/24 09:33:03;;;;;;;38.67;19.15;;;21.90;25.30;;;;;;5044183;28;20041;-53
2022/03/24 09:35:29;;;;;;;38.42;20.80;;;21.60;24.60;;;;;;5054987;28;20564;-53
2022/03/24 09:37:55;;;;;;;37.25;19.17;;;21.50;24.50;;;;;;5055637;28;20072;-54
2022/03/24 09:40:21;;;;;;;37.15;20.27;;;22.50;24.90;;;;;;5055567;28;20083;-54
2022/03/24 09:42:47;;;;;;;43.65;21.85;;;22.40;23.70;;;;;;5055857;28;20060;-54
2022/03/24 09:45:14;;;;;;;43.22;22.17;;;22.40;24.10;;;;;;5055092;28;20029;-54
2022/03/24 09:47:42;;;;;;;44.17;24.25;;;22.40;24.30;;;;;;5054136;28;20036;-54
2022/03/24 09:50:10;;;;;;;39.47;20.98;;;22.30;24.00;;;;;;5048774;28;20056;-54
2022/03/24 09:52:38;;;;;;;37.72;20.08;;;22.40;23.60;;;;;;5054624;28;20033;-54
2022/03/24 09:55:08;;;;;;;47.65;20.08;;;22.00;23.60;;;;;;5054913;28;20420;-54
2022/03/24 09:57:36;;;;;;;35.83;19.70;;;22.30;23.30;;;;;;5054567;28;20039;-54
2022/03/24 10:00:03;;;;;;;29.15;13.02;;;22.30;22.70;;;;;;5050222;28;20052;-54
2022/03/24 10:02:30;;;;;;;21.10;11.30;;;21.90;22.40;;;;;;5054221;28;21079;-54
2022/03/24 10:05:01;;;;;;;29.05;12.63;;;22.00;21.60;;;;;;5051773;28;20471;-54
2022/03/24 10:07:47;;;;;;;41.20;21.60;;;21.80;21.60;;;;;;5053966;28;20052;-54
2022/03/24 10:10:37;;;;;;;43.22;23.17;;;22.60;21.70;;;;;;5054789;28;20071;-54
2022/03/24 10:13:04;;;;;;;33.60;19.57;;;24.00;21.10;;;;;;5054931;28;20055;-54
2022/03/24 10:15:30;;;;;;;41.00;19.77;;;24.30;21.10;;;;;;5055001;28;20028;-54
2022/03/24 10:17:58;;;;;;;40.95;18.88;;;24.50;20.10;;;;;;5053580;28;20101;-54
2022/03/24 10:20:29;;;;;;;48.13;16.63;;;24.20;19.80;;;;;;5054815;28;20029;-54
2022/03/24 10:23:03;;;;;;;26.75;11.68;;;23.80;19.60;;;;;;5054429;28;20021;-54
2022/03/24 10:25:33;;;;;;;26.60;14.10;;;23.40;19.30;;;;;;5054730;28;20037;-54
2022/03/24 10:28:03;;;;;;;;;;;22.80;18.80;;;;;;5053829;28;20059;-54
2022/03/24 10:30:50;;;;;;;39.17;15.60;;;22.90;19.30;;;;;;5054177;28;19908;-54
2022/03/24 10:33:32;;;;;;;30.52;14.68;;;22.70;18.70;;;;;;5052276;28;20029;-54
2022/03/24 10:36:23;;;;;;;51.55;17.08;;;23.00;18.90;;;;;;5053263;28;20075;-54
2022/03/24 10:38:53;;;;;;;33.63;17.38;;;23.50;19.00;;;;;;5054824;28;20029;-54
2022/03/24 10:41:31;;;;;;;43.80;19.03;;;23.80;19.60;;;;;;5055459;28;20037;-54
2022/03/24 10:44:04;;;;;;;39.67;17.90;;;24.30;19.10;;;;;;5055310;28;20327;-54
2022/03/24 10:46:32;;;;;;;32.13;15.85;;;24.40;18.60;;;;;;5055163;28;20037;-54
2022/03/24 10:49:13;;;;;;;52.72;19.48;;;24.30;17.80;;;;;;5054396;28;20035;-54
2022/03/24 10:51:43;;;;;;;33.88;15.38;;;23.90;17.40;;;;;;5046999;28;20021;-54
2022/03/24 10:54:19;;;;;;;21.85;14.25;;;23.70;16.60;;;;;;5047534;28;20021;-54
2022/03/24 10:56:52;;;;;;;26.92;14.98;;;24.00;17.10;;;;;;5046023;28;20119;-54
2022/03/24 10:59:23;;;;;;;23.42;9.90;;;24.50;17.30;;;;;;5048807;28;20092;-54
2022/03/24 11:01:49;;;;;;;27.27;10.60;;;24.80;15.70;;;;;;5049626;28;20100;-54
2022/03/24 11:04:18;;;;;;;12.65;6.80;;;24.80;14.60;;;;;;5044826;28;20020;-55
2022/03/24 11:06:49;;;;;;;50.70;13.23;;;25.30;13.60;;;;;;5049626;28;20041;-55
2022/03/24 11:09:35;;;;;;;;;;;25.10;13.90;;;;;;5049062;28;20037;-55
2022/03/24 11:12:38;;;;;;;21.00;8.55;;;25.10;14.00;;;;;;5045428;28;19912;-55
2022/03/24 11:15:07;;;;;;;33.38;11.20;;;24.30;13.80;;;;;;5048335;28;20032;-55
2022/03/24 11:17:39;;;;;;;16.83;8.70;;;24.90;14.70;;;;;;5045545;28;20103;-55
2022/03/24 11:20:14;;;;;;;21.40;9.05;;;25.40;14.30;;;;;;5054956;28;20104;-55
2022/03/24 11:23:00;;;;;;;14.73;7.38;;;25.90;13.40;;;;;;5051268;28;20068;-55
2022/03/24 11:25:28;;;;;;;11.75;7.43;;;25.80;12.60;;;;;;5042328;28;20083;-55
2022/03/24 11:27:54;;;;;;;13.52;8.38;;;25.30;12.40;;;;;;5045149;28;20439;-55
2022/03/24 11:30:22;;;;;;;21.95;9.38;;;25.80;13.00;;;;;;5037480;28;20026;-55
2022/03/24 11:32:52;;;;;;;16.02;8.43;;;26.10;13.40;;;;;;5047311;28;20430;-53
2022/03/24 11:35:19;;;;;;;26.38;9.88;;;26.30;13.50;;;;;;5041631;28;20034;-53
2022/03/24 11:37:47;;;;;;;25.73;10.10;;;26.10;13.80;;;;;;5044638;28;20086;-53
2022/03/24 11:40:25;;;;;;;20.23;10.40;;;26.70;14.40;;;;;;5054030;28;20433;-53
2022/03/24 11:43:17;;;;;;;14.90;9.77;;;26.70;13.50;;;;;;5053877;28;20043;-53
2022/03/24 11:46:02;;;;;;;19.92;9.20;;;26.50;12.90;;;;;;5054034;28;20056;-53
2022/03/24 11:48:36;;;;;;;20.55;9.43;;;26.40;12.20;;;;;;5053503;28;20033;-53
2022/03/24 11:51:16;;;;;;;19.48;10.02;;;26.30;12.90;;;;;;5056575;28;20025;-53
2022/03/24 11:53:43;;;;;;;15.88;8.45;;;26.20;12.80;;;;;;5043165;28;20048;-53
2022/03/24 11:56:10;;;;;;;36.60;13.50;;;25.40;12.70;;;;;;5048881;28;20087;-52
2022/03/24 11:58:41;;;;;;;15.63;9.18;;;24.60;13.40;;;;;;5055214;28;20051;-53
2022/03/24 12:01:32;;;;;;;26.73;10.30;;;24.70;14.20;;;;;;5049103;28;20131;-53
2022/03/24 12:04:05;;;;;;;32.88;11.93;;;25.00;14.40;;;;;;5044078;28;20076;-53
2022/03/24 12:07:03;;;;;;;17.35;9.02;;;25.60;13.90;;;;;;5054507;28;20398;-53
2022/03/24 12:09:32;;;;;;;21.40;10.02;;;25.40;13.50;;;;;;5048659;28;20113;-53
2022/03/24 12:12:04;;;;;;;26.17;10.50;;;26.00;13.90;;;;;;5054064;28;20025;-53
2022/03/24 12:14:30;;;;;;;21.45;9.70;;;26.30;13.20;;;;;;5055029;28;20371;-53
2022/03/24 12:17:00;;;;;;;19.17;9.00;;;26.60;13.10;;;;;;5056648;28;20429;-53
2022/03/24 12:19:39;;;;;;;18.73;9.68;;;25.90;13.90;;;;;;5051104;28;20510;-53
2022/03/24 12:22:32;;;;;;;20.65;10.40;;;26.10;15.00;;;;;;5055719;28;20418;-53
2022/03/24 12:25:02;;;;;;;28.33;10.95;;;26.30;15.20;;;;;;5040295;28;20027;-53
2022/03/24 12:27:32;;;;;;;18.75;10.98;;;26.20;14.90;;;;;;5043826;28;20095;-53
2022/03/24 12:30:19;;;;;;;24.98;11.50;;;26.00;15.00;;;;;;5053205;28;20071;-53
2022/03/24 12:33:18;;;;;;;33.13;11.82;;;25.00;15.00;;;;;;5049287;28;20376;-55
2022/03/24 12:35:49;;;;;;;32.05;12.45;;;25.50;16.10;;;;;;5054669;28;20782;-55
2022/03/24 12:38:24;;;;;;;34.65;13.52;;;25.20;15.50;;;;;;5057152;28;20055;-53